Time;durP1;ratioP1;P1;durP2;ratioP2;P2;SDS_P1;SDS_P2;PMS_P1;PMS_P2;Temp;Humidity;BMP_temperature;BMP_pressure;BME280_temperature;BME280_humidity;BME280_pressure;Samples;Min_cycle;Max_cycle;Signal;HPM_P1;HPM_P2
2022/06/06 00:00:08;;;;;;;8.57;4.15;;;13.20;92.70;;;;;;5056270;28;20025;-69
2022/06/06 00:02:34;;;;;;;9.65;4.47;;;13.10;92.60;;;;;;5054825;28;20017;-70
2022/06/06 00:04:59;;;;;;;7.07;3.22;;;13.10;91.80;;;;;;5056516;28;20083;-70
2022/06/06 00:07:26;;;;;;;8.85;4.05;;;13.00;91.70;;;;;;5057555;28;20036;-69
2022/06/06 00:09:52;;;;;;;8.80;4.18;;;12.90;91.90;;;;;;5057333;28;20029;-69
2022/06/06 00:12:20;;;;;;;9.23;4.97;;;12.90;90.40;;;;;;5054464;28;20091;-70
2022/06/06 00:14:46;;;;;;;8.10;4.70;;;12.80;91.20;;;;;;5054168;28;20075;-69
2022/06/06 00:17:13;;;;;;;10.50;4.20;;;12.60;91.10;;;;;;5057538;28;20025;-70
2022/06/06 00:19:39;;;;;;;8.18;4.60;;;12.40;90.40;;;;;;5055949;28;20025;-70
2022/06/06 00:22:04;;;;;;;8.15;4.80;;;12.50;89.00;;;;;;5051837;28;20036;-70
2022/06/06 00:24:30;;;;;;;9.35;5.28;;;12.50;88.50;;;;;;5057047;28;20036;-69
2022/06/06 00:26:56;;;;;;;9.35;4.53;;;12.50;87.30;;;;;;5055901;28;20104;-70
2022/06/06 00:29:22;;;;;;;8.00;4.50;;;12.50;88.00;;;;;;5047764;28;20423;-70
2022/06/06 00:34:54;;;;;;;8.05;4.75;;;12.50;87.70;;;;;;5054264;28;20111;-70
2022/06/06 00:37:27;;;;;;;9.30;5.88;;;12.50;87.40;;;;;;5056066;28;20038;-70
2022/06/06 00:39:53;;;;;;;10.10;4.45;;;12.40;86.60;;;;;;5055800;28;20483;-70
2022/06/06 00:42:24;;;;;;;10.82;4.70;;;12.50;86.60;;;;;;5052857;28;20021;-70
2022/06/06 00:45:20;;;;;;;7.75;4.90;;;12.70;86.20;;;;;;5054795;28;20479;-70
2022/06/06 00:48:09;;;;;;;7.38;4.82;;;12.70;86.70;;;;;;5048304;28;20029;-69
2022/06/06 00:50:57;;;;;;;9.60;4.47;;;12.90;89.10;;;;;;5052365;28;20045;-69
2022/06/06 00:53:43;;;;;;;5.97;4.35;;;13.00;90.00;;;;;;5054056;28;20045;-70
2022/06/06 00:56:34;;;;;;;7.43;4.60;;;12.90;91.10;;;;;;5050765;28;20111;-70
2022/06/06 00:59:03;;;;;;;11.40;4.18;;;12.90;90.60;;;;;;5053511;28;20017;-70
2022/06/06 01:01:31;;;;;;;6.32;4.13;;;13.00;91.10;;;;;;5054797;28;20040;-69
2022/06/06 01:04:02;;;;;;;9.05;4.10;;;13.20;91.50;;;;;;5054523;28;20025;-69
2022/06/06 01:06:39;;;;;;;6.85;3.70;;;13.20;92.40;;;;;;5053519;28;20051;-70
2022/06/06 01:09:08;;;;;;;7.13;3.72;;;13.20;93.00;;;;;;5054601;28;20028;-69
2022/06/06 01:11:39;;;;;;;9.05;5.07;;;13.10;93.20;;;;;;5051836;28;20064;-69
2022/06/06 01:14:08;;;;;;;6.35;4.03;;;13.10;93.60;;;;;;5041463;28;20025;-71
2022/06/06 01:16:55;;;;;;;7.28;3.90;;;13.10;93.10;;;;;;5050878;28;20048;-70
2022/06/06 01:19:45;;;;;;;6.50;4.22;;;13.10;93.00;;;;;;5054793;28;20029;-70
2022/06/06 01:22:32;;;;;;;8.80;5.07;;;13.10;93.40;;;;;;5054593;28;20021;-70
2022/06/06 01:25:23;;;;;;;8.45;4.70;;;13.00;93.40;;;;;;5055493;28;20025;-71
2022/06/06 01:28:07;;;;;;;8.90;5.18;;;13.00;92.80;;;;;;5044951;28;20060;-70
2022/06/06 01:30:42;;;;;;;7.90;4.63;;;13.00;92.90;;;;;;5045476;28;20120;-70
2022/06/06 01:33:11;;;;;;;7.78;4.40;;;13.10;92.30;;;;;;5053586;28;20303;-70
2022/06/06 01:35:40;;;;;;;7.13;4.75;;;13.10;92.80;;;;;;5049785;28;20036;-70
2022/06/06 01:38:06;;;;;;;8.65;4.47;;;13.30;93.30;;;;;;5047266;28;20028;-70
2022/06/06 01:41:09;;;;;;;7.38;4.03;;;13.40;93.80;;;;;;5048317;28;20046;-70
2022/06/06 01:43:45;;;;;;;7.10;4.28;;;13.50;94.60;;;;;;5043734;28;20471;-70
2022/06/06 01:46:20;;;;;;;8.93;4.90;;;13.60;95.00;;;;;;5046506;28;20128;-70
2022/06/06 01:48:50;;;;;;;7.85;4.68;;;13.60;94.90;;;;;;5054461;28;20029;-70
2022/06/06 01:51:21;;;;;;;6.28;4.60;;;13.60;95.30;;;;;;5052094;28;20429;-70
2022/06/06 01:53:47;;;;;;;6.72;4.32;;;13.60;95.00;;;;;;5053435;28;20121;-69
2022/06/06 01:56:25;;;;;;;8.90;4.38;;;13.70;95.20;;;;;;5048976;28;20203;-69
2022/06/06 01:58:51;;;;;;;7.78;4.38;;;13.70;95.20;;;;;;5052273;28;20029;-69
2022/06/06 02:01:17;;;;;;;7.97;3.97;;;13.70;95.30;;;;;;5049686;28;20437;-70
2022/06/06 02:03:43;;;;;;;8.48;4.72;;;13.70;95.20;;;;;;5051702;28;20036;-70
2022/06/06 02:06:09;;;;;;;9.88;4.03;;;13.70;95.40;;;;;;5046844;28;20021;-69
2022/06/06 02:08:34;;;;;;;7.35;3.92;;;13.80;95.80;;;;;;5051027;28;20025;-70
2022/06/06 02:11:00;;;;;;;8.23;4.60;;;13.80;95.90;;;;;;5053483;28;20096;-70
2022/06/06 02:13:27;;;;;;;8.77;4.40;;;13.80;95.80;;;;;;5051536;28;20112;-70
2022/06/06 02:15:53;;;;;;;6.20;4.00;;;13.80;95.60;;;;;;5051213;28;20047;-70
2022/06/06 02:18:18;;;;;;;6.32;4.28;;;13.80;96.10;;;;;;5049574;28;20100;-70
2022/06/06 02:20:44;;;;;;;10.13;4.68;;;13.80;96.10;;;;;;5049679;28;20021;-70
2022/06/06 02:23:12;;;;;;;7.63;5.05;;;13.70;96.00;;;;;;5051998;28;20028;-69
2022/06/06 02:25:38;;;;;;;9.68;5.07;;;13.60;95.50;;;;;;5050132;28;20025;-70
2022/06/06 02:28:04;;;;;;;7.43;4.47;;;13.60;94.70;;;;;;5035702;28;20031;-70
2022/06/06 02:30:32;;;;;;;7.40;5.00;;;13.50;94.60;;;;;;5053477;28;20053;-70
2022/06/06 02:32:58;;;;;;;9.02;4.75;;;13.30;94.00;;;;;;5050933;28;20044;-70
2022/06/06 02:35:28;;;;;;;6.22;4.50;;;13.30;93.80;;;;;;5050108;28;20028;-70
2022/06/06 02:37:58;;;;;;;7.70;5.15;;;13.10;93.70;;;;;;5043148;28;20318;-70
2022/06/06 02:40:26;;;;;;;13.25;5.15;;;13.10;92.40;;;;;;5049600;28;20040;-70
2022/06/06 02:42:52;;;;;;;10.20;5.70;;;13.10;92.00;;;;;;5043294;28;20414;-70
2022/06/06 02:45:18;;;;;;;7.40;5.18;;;13.20;93.10;;;;;;5052964;28;20037;-70
2022/06/06 02:47:47;;;;;;;9.50;5.30;;;13.20;93.10;;;;;;5050482;28;20036;-70
2022/06/06 02:50:16;;;;;;;8.20;5.35;;;13.30;93.40;;;;;;5048395;28;20379;-70
2022/06/06 02:52:43;;;;;;;8.30;4.75;;;13.30;93.40;;;;;;5049996;28;20039;-70
2022/06/06 02:55:10;;;;;;;9.50;4.63;;;13.30;93.60;;;;;;5045573;28;20444;-70
2022/06/06 02:57:40;;;;;;;8.65;5.03;;;13.30;93.20;;;;;;5053509;28;20032;-71
2022/06/06 03:00:09;;;;;;;7.15;4.88;;;13.20;93.80;;;;;;5044352;28;20071;-69
2022/06/06 03:02:35;;;;;;;9.60;5.07;;;13.10;93.40;;;;;;5044246;28;20050;-70
2022/06/06 03:05:05;;;;;;;10.27;5.18;;;13.10;92.90;;;;;;5040879;28;20407;-70
2022/06/06 03:07:55;;;;;;;9.18;5.18;;;13.10;92.90;;;;;;5053535;28;20059;-70
2022/06/06 03:10:47;;;;;;;8.38;4.93;;;12.80;93.50;;;;;;5047357;28;20412;-70
2022/06/06 03:13:21;;;;;;;6.97;5.20;;;12.90;92.10;;;;;;5049535;28;20024;-70
2022/06/06 03:22:21;;;;;;;8.15;4.32;;;13.00;91.70;;;;;;5043655;28;20032;-70
2022/06/06 03:25:08;;;;;;;7.47;4.70;;;13.30;92.30;;;;;;5042181;28;20095;-70
2022/06/06 03:28:03;;;;;;;6.88;4.65;;;13.30;93.20;;;;;;5042546;28;20029;-70
2022/06/06 03:30:58;;;;;;;9.85;4.75;;;13.40;93.50;;;;;;5051215;28;20027;-70
2022/06/06 03:33:58;;;;;;;7.15;4.53;;;13.40;93.80;;;;;;5057822;28;20589;-70
2022/06/06 03:36:57;;;;;;;9.43;4.78;;;13.40;94.00;;;;;;5056577;28;20079;-70
2022/06/06 03:39:37;;;;;;;7.70;4.10;;;13.50;94.10;;;;;;5054410;28;20027;-70
2022/06/06 03:42:03;;;;;;;8.00;4.63;;;13.60;94.70;;;;;;5056264;28;20044;-70
2022/06/06 03:44:37;;;;;;;7.72;4.50;;;13.50;95.80;;;;;;5055671;28;20021;-70
2022/06/06 03:47:14;;;;;;;6.43;4.22;;;13.20;95.40;;;;;;5056970;28;20028;-70
2022/06/06 03:50:12;;;;;;;8.25;4.97;;;13.10;94.20;;;;;;5056049;28;20033;-70
2022/06/06 03:52:44;;;;;;;8.57;5.05;;;13.00;93.00;;;;;;5051764;28;20044;-70
2022/06/06 03:55:44;;;;;;;8.85;5.18;;;13.00;92.60;;;;;;5053638;28;20310;-70
2022/06/06 03:58:12;;;;;;;13.90;5.57;;;12.90;92.30;;;;;;5040779;28;20022;-70
2022/06/06 04:00:40;;;;;;;9.65;5.28;;;13.10;90.80;;;;;;5048484;28;20485;-70
2022/06/06 04:03:06;;;;;;;10.75;4.90;;;13.30;92.20;;;;;;5055328;28;20037;-70
2022/06/06 04:05:36;;;;;;;7.50;4.82;;;13.30;92.20;;;;;;5052720;28;20024;-69
2022/06/06 04:08:03;;;;;;;8.60;4.22;;;13.40;92.40;;;;;;5045566;28;20025;-70
2022/06/06 04:11:03;;;;;;;8.52;5.13;;;13.50;92.60;;;;;;5054079;28;20021;-71
2022/06/06 04:13:56;;;;;;;7.47;4.00;;;13.60;94.70;;;;;;5049052;28;20024;-71
2022/06/06 04:16:31;;;;;;;7.97;4.15;;;13.50;93.60;;;;;;5055168;28;20036;-71
2022/06/06 04:19:28;;;;;;;8.00;4.68;;;13.60;93.30;;;;;;5051961;28;20454;-71
2022/06/06 04:22:37;;;;;;;6.07;4.22;;;13.70;93.50;;;;;;5055327;28;20033;-70
2022/06/06 04:25:34;;;;;;;6.65;3.95;;;13.70;94.10;;;;;;5048944;28;20029;-70
2022/06/06 04:28:23;;;;;;;6.03;3.67;;;13.70;94.00;;;;;;5052778;28;20040;-70
2022/06/06 04:31:24;;;;;;;6.22;3.70;;;13.80;94.20;;;;;;5055508;28;20017;-71
2022/06/06 04:33:58;;;;;;;7.45;4.10;;;13.90;94.10;;;;;;5055393;28;20025;-70
2022/06/06 04:36:48;;;;;;;7.15;4.30;;;13.80;94.00;;;;;;5045926;28;20041;-70
2022/06/06 04:39:41;;;;;;;6.47;4.00;;;13.70;94.20;;;;;;5047858;28;20502;-71
2022/06/06 04:42:22;;;;;;;5.60;3.80;;;13.60;93.60;;;;;;5050350;28;20040;-70
2022/06/06 04:45:30;;;;;;;9.07;4.50;;;13.50;92.90;;;;;;5043781;28;20029;-70
2022/06/06 04:47:58;;;;;;;7.03;4.32;;;13.60;92.10;;;;;;5051754;28;20100;-69
2022/06/06 04:50:24;;;;;;;7.10;4.53;;;13.80;92.30;;;;;;5045056;28;20033;-69
2022/06/06 04:52:58;;;;;;;6.75;4.20;;;13.80;94.00;;;;;;5045350;28;20559;-70
2022/06/06 04:55:24;;;;;;;;;;;13.70;94.30;;;;;;5049080;28;20033;-70
2022/06/06 04:57:58;;;;;;;6.93;4.32;;;13.60;93.70;;;;;;5047545;28;19909;-70
2022/06/06 05:00:27;;;;;;;8.95;4.05;;;13.60;93.70;;;;;;5051940;28;20029;-70
2022/06/06 05:02:53;;;;;;;6.45;4.30;;;13.60;93.20;;;;;;5054078;28;20021;-70
2022/06/06 05:05:20;;;;;;;6.38;4.40;;;13.70;93.10;;;;;;5048494;28;20109;-70
2022/06/06 05:08:04;;;;;;;5.85;4.25;;;13.90;93.40;;;;;;5048115;28;20039;-70
2022/06/06 05:10:55;;;;;;;8.02;4.25;;;14.00;93.90;;;;;;5048572;28;20112;-70
2022/06/06 05:13:32;;;;;;;7.88;4.78;;;14.20;94.00;;;;;;5044227;28;20045;-69
2022/06/06 05:16:19;;;;;;;7.15;4.20;;;14.40;95.30;;;;;;5052103;28;20024;-70
2022/06/06 05:19:10;;;;;;;9.07;4.32;;;14.60;95.90;;;;;;5051403;28;20116;-70
2022/06/06 05:21:56;;;;;;;8.55;4.20;;;14.70;96.40;;;;;;5052269;28;20017;-70
2022/06/06 05:24:40;;;;;;;6.32;3.75;;;14.80;96.80;;;;;;5051640;28;20029;-70
2022/06/06 05:27:29;;;;;;;6.65;4.18;;;15.00;97.50;;;;;;5055696;28;20029;-70
2022/06/06 05:30:12;;;;;;;5.60;3.70;;;15.20;98.00;;;;;;5047871;28;20033;-70
2022/06/06 05:32:45;;;;;;;6.72;3.85;;;15.40;97.70;;;;;;5047374;28;20033;-70
2022/06/06 05:35:28;;;;;;;7.03;3.88;;;15.60;98.00;;;;;;5054317;28;20021;-70
2022/06/06 05:38:15;;;;;;;6.68;3.80;;;15.70;98.00;;;;;;5048731;28;20119;-70
2022/06/06 05:40:55;;;;;;;6.40;3.80;;;15.90;98.00;;;;;;5053904;28;20380;-70
2022/06/06 05:43:56;;;;;;;6.97;3.90;;;16.20;98.00;;;;;;5052108;28;20036;-70
2022/06/06 05:46:36;;;;;;;6.68;3.92;;;16.60;98.00;;;;;;5047104;28;20067;-70
2022/06/06 05:49:03;;;;;;;6.97;4.25;;;17.00;98.00;;;;;;5043129;28;20044;-70
2022/06/06 05:51:43;;;;;;;7.47;4.30;;;17.20;97.40;;;;;;5052209;28;20391;-70
2022/06/06 05:54:31;;;;;;;7.55;3.92;;;17.10;97.10;;;;;;5050923;28;20025;-70
2022/06/06 05:57:19;;;;;;;6.80;3.70;;;16.80;97.50;;;;;;5053793;28;20057;-70
2022/06/06 06:00:10;;;;;;;6.22;4.00;;;16.70;97.70;;;;;;5050940;28;20021;-70
2022/06/06 06:03:26;;;;;;;9.00;4.22;;;16.70;97.80;;;;;;5052733;28;20021;-70
2022/06/06 06:06:10;;;;;;;7.07;4.38;;;16.70;97.60;;;;;;5050421;28;20025;-70
2022/06/06 06:09:04;;;;;;;8.90;4.32;;;16.70;97.50;;;;;;5048609;28;20041;-70
2022/06/06 06:11:56;;;;;;;7.97;4.18;;;16.80;97.60;;;;;;5047904;28;20041;-70
2022/06/06 06:14:34;;;;;;;8.27;4.38;;;16.80;97.50;;;;;;5045153;28;20091;-69
2022/06/06 06:17:02;;;;;;;7.13;3.97;;;17.10;97.20;;;;;;5050471;28;20634;-70
2022/06/06 06:20:14;;;;;;;8.50;4.22;;;17.40;96.80;;;;;;5049938;28;20082;-70
2022/06/06 06:22:47;;;;;;;8.15;4.00;;;17.60;96.30;;;;;;5047332;28;20029;-70
2022/06/06 06:25:15;;;;;;;7.03;4.20;;;17.60;96.30;;;;;;5052393;28;20073;-70
2022/06/06 06:27:43;;;;;;;6.22;3.85;;;17.60;95.90;;;;;;5044317;28;20093;-70
2022/06/06 06:30:09;;;;;;;9.00;3.83;;;17.50;95.70;;;;;;5042226;28;20091;-70
2022/06/06 06:33:18;;;;;;;6.90;3.70;;;17.50;95.70;;;;;;5052145;28;20511;-70
2022/06/06 06:36:07;;;;;;;7.18;4.22;;;17.60;95.70;;;;;;5052407;28;20416;-70
2022/06/06 06:38:57;;;;;;;7.63;3.80;;;17.70;94.60;;;;;;5052799;28;20032;-70
2022/06/06 06:41:47;;;;;;;7.18;4.05;;;17.60;95.20;;;;;;5051808;28;20301;-70
2022/06/06 06:44:32;;;;;;;8.07;3.88;;;17.50;94.70;;;;;;5044658;28;20020;-70
2022/06/06 06:47:03;;;;;;;7.35;3.97;;;17.50;95.40;;;;;;5049878;28;20033;-70
2022/06/06 06:49:59;;;;;;;6.45;3.92;;;17.70;94.90;;;;;;5052934;28;20029;-70
2022/06/06 06:52:37;;;;;;;8.55;3.88;;;17.90;94.80;;;;;;5052598;28;20021;-69
2022/06/06 06:55:22;;;;;;;8.15;4.00;;;18.20;93.70;;;;;;5044796;28;20024;-70
2022/06/06 06:57:56;;;;;;;;;;;18.40;93.50;;;;;;5054217;28;20021;-69
2022/06/06 07:00:23;;;;;;;8.85;4.47;;;18.60;93.10;;;;;;5051539;28;19958;-70
2022/06/06 07:09:12;;;;;;;5.88;3.38;;;18.70;92.70;;;;;;5052112;28;20040;-70
2022/06/06 07:12:15;;;;;;;6.68;3.83;;;18.90;92.20;;;;;;5050623;28;20048;-71
2022/06/06 07:15:11;;;;;;;10.63;3.80;;;19.00;91.60;;;;;;5047333;28;20036;-69
2022/06/06 07:17:48;;;;;;;6.85;3.65;;;18.90;91.70;;;;;;5051075;28;20037;-71
2022/06/06 07:20:16;;;;;;;5.90;3.10;;;18.70;90.20;;;;;;5047809;28;20425;-71
2022/06/06 07:23:02;;;;;;;7.00;3.28;;;18.70;91.30;;;;;;5054168;28;20063;-71
2022/06/06 07:25:49;;;;;;;5.82;3.50;;;19.20;91.00;;;;;;5051525;28;20154;-71
2022/06/06 07:28:23;;;;;;;8.95;3.30;;;19.80;89.30;;;;;;5052957;28;20032;-71
2022/06/06 07:31:42;;;;;;;5.30;2.95;;;20.70;86.30;;;;;;5054638;28;20064;-69
2022/06/06 07:34:20;;;;;;;5.60;2.92;;;21.30;85.60;;;;;;5038863;28;20490;-70
2022/06/06 07:37:21;;;;;;;7.10;2.85;;;21.90;82.30;;;;;;5047352;28;20032;-70
2022/06/06 07:40:09;;;;;;;5.20;2.95;;;21.20;82.50;;;;;;5037019;28;20080;-70
2022/06/06 07:43:05;;;;;;;5.75;3.10;;;20.80;83.70;;;;;;5041649;28;20022;-70
2022/06/06 07:45:45;;;;;;;4.35;2.65;;;20.80;83.80;;;;;;5051898;28;20453;-69
2022/06/06 07:48:42;;;;;;;6.35;2.88;;;21.20;83.40;;;;;;5046310;28;20021;-70
2022/06/06 07:51:15;;;;;;;6.72;2.72;;;21.30;82.40;;;;;;5043602;28;20024;-70
2022/06/06 07:54:04;;;;;;;6.18;2.78;;;21.90;80.90;;;;;;5049370;28;20065;-70
2022/06/06 07:56:55;;;;;;;6.47;2.60;;;22.10;80.30;;;;;;5048293;28;20059;-71
2022/06/06 07:59:47;;;;;;;8.68;2.55;;;21.70;81.10;;;;;;5037056;28;20061;-70
2022/06/06 08:02:31;;;;;;;5.32;2.65;;;21.50;82.20;;;;;;5034387;28;20531;-70
2022/06/06 08:05:18;;;;;;;5.45;2.78;;;21.10;82.90;;;;;;5050573;28;20373;-69
2022/06/06 08:08:19;;;;;;;5.10;2.83;;;20.90;83.00;;;;;;5053338;28;20155;-70
2022/06/06 08:10:46;;;;;;;5.72;2.53;;;21.10;82.20;;;;;;5038066;28;20029;-70
2022/06/06 08:13:32;;;;;;;6.68;3.08;;;21.30;80.80;;;;;;5045492;28;20316;-70
2022/06/06 08:16:28;;;;;;;6.30;3.47;;;21.30;80.10;;;;;;5047913;28;20025;-70
2022/06/06 08:19:33;;;;;;;24.98;3.70;;;20.60;81.80;;;;;;5050596;28;20024;-70
2022/06/06 08:22:00;;;;;;;7.38;3.17;;;19.80;85.00;;;;;;5051817;28;20029;-69
2022/06/06 08:24:28;;;;;;;8.40;3.63;;;19.70;86.80;;;;;;5048613;28;20049;-69
2022/06/06 08:26:55;;;;;;;6.55;3.35;;;20.20;85.60;;;;;;5053966;28;20036;-70
2022/06/06 08:29:22;;;;;;;6.72;3.30;;;20.60;83.50;;;;;;5050660;28;20064;-70
2022/06/06 08:31:48;;;;;;;6.95;2.88;;;20.80;84.40;;;;;;5048426;28;20749;-70
2022/06/06 08:34:14;;;;;;;14.98;3.83;;;21.70;81.70;;;;;;5053407;28;20386;-70
2022/06/06 08:36:48;;;;;;;4.35;2.22;;;22.30;80.40;;;;;;5055950;28;20067;-70
2022/06/06 08:39:34;;;;;;;4.95;2.65;;;23.20;78.30;;;;;;5052215;28;20103;-69
2022/06/06 08:42:18;;;;;;;6.55;2.60;;;23.70;75.40;;;;;;5053353;28;20029;-69
2022/06/06 08:45:09;;;;;;;6.60;2.50;;;23.70;74.40;;;;;;5048031;28;20021;-69
2022/06/06 08:47:43;;;;;;;6.75;2.60;;;23.80;73.10;;;;;;5050745;28;20340;-70
2022/06/06 08:53:14;;;;;;;5.25;2.22;;;23.90;73.80;;;;;;5045828;28;20379;-70
2022/06/06 08:55:58;;;;;;;4.75;2.30;;;24.30;74.00;;;;;;5044746;28;20131;-70
2022/06/06 08:58:39;;;;;;;5.65;2.60;;;25.00;73.30;;;;;;5045714;28;20053;-70
2022/06/06 09:01:32;;;;;;;4.47;2.50;;;24.50;72.10;;;;;;5050174;28;20030;-70
2022/06/06 09:04:15;;;;;;;5.53;2.40;;;23.10;73.70;;;;;;5052530;28;20086;-70
2022/06/06 09:07:03;;;;;;;4.38;2.13;;;22.40;75.70;;;;;;5047785;28;20040;-69
2022/06/06 09:09:50;;;;;;;7.22;2.67;;;21.90;77.10;;;;;;5051001;28;20029;-71
2022/06/06 09:12:31;;;;;;;3.95;2.10;;;21.90;78.00;;;;;;5051137;28;20033;-70
2022/06/06 09:15:21;;;;;;;4.53;1.85;;;21.90;78.40;;;;;;5051827;28;20029;-70
2022/06/06 09:18:01;;;;;;;4.30;2.08;;;22.30;76.70;;;;;;5054894;28;20036;-69
2022/06/06 09:20:41;;;;;;;4.07;2.10;;;22.50;76.90;;;;;;5053370;28;20025;-70
2022/06/06 09:23:32;;;;;;;5.18;2.25;;;22.40;76.60;;;;;;5049190;28;20353;-70
2022/06/06 09:26:01;;;;;;;3.03;1.80;;;22.10;76.20;;;;;;5056836;28;20104;-70
2022/06/06 09:29:04;;;;;;;5.45;2.45;;;22.30;77.50;;;;;;5055957;28;20028;-70
2022/06/06 09:31:34;;;;;;;5.55;2.28;;;22.60;76.30;;;;;;5053006;28;20037;-70
2022/06/06 09:34:21;;;;;;;4.82;2.33;;;23.40;75.50;;;;;;5056604;28;20025;-70
2022/06/06 09:36:58;;;;;;;3.67;1.83;;;23.90;73.90;;;;;;5055078;28;20118;-70
2022/06/06 09:39:54;;;;;;;6.85;2.15;;;24.10;72.00;;;;;;5054051;28;20025;-70
2022/06/06 09:42:58;;;;;;;3.58;1.75;;;24.10;71.20;;;;;;5054619;28;20040;-69
2022/06/06 09:45:42;;;;;;;5.10;2.15;;;24.30;70.10;;;;;;5047704;28;20457;-70
2022/06/06 09:48:34;;;;;;;4.13;2.00;;;24.40;70.10;;;;;;5045449;28;20037;-69
2022/06/06 09:51:29;;;;;;;4.95;1.90;;;24.70;70.60;;;;;;5056163;28;20334;-69
2022/06/06 10:00:37;;;;;;;7.57;2.70;;;22.70;74.60;;;;;;5055091;28;20039;-69
2022/06/06 10:03:48;;;;;;;6.22;3.15;;;22.90;75.50;;;;;;5054333;28;20441;-69
2022/06/06 10:06:51;;;;;;;6.50;2.58;;;23.00;75.00;;;;;;5052215;28;20035;-70
2022/06/06 10:09:26;;;;;;;6.03;2.28;;;22.70;75.70;;;;;;5053859;28;20067;-69
2022/06/06 10:12:16;;;;;;;3.97;2.03;;;23.50;74.80;;;;;;5055236;28;20440;-69
2022/06/06 10:15:00;;;;;;;4.95;2.30;;;24.20;72.70;;;;;;5055439;28;20061;-69
2022/06/06 10:17:49;;;;;;;6.75;2.15;;;24.90;70.80;;;;;;5050224;28;20023;-70
2022/06/06 10:20:48;;;;;;;7.10;2.47;;;24.30;69.50;;;;;;5048318;28;20047;-69
2022/06/06 10:23:20;;;;;;;4.15;2.20;;;23.70;72.40;;;;;;5053960;28;20060;-70
2022/06/06 10:26:02;;;;;;;5.70;2.47;;;23.60;73.70;;;;;;5054606;28;20275;-70
2022/06/06 10:28:55;;;;;;;5.05;2.28;;;23.70;72.60;;;;;;5051599;28;20060;-68
2022/06/06 10:31:51;;;;;;;3.92;2.03;;;23.40;70.80;;;;;;5043831;28;20033;-68
2022/06/06 10:34:46;;;;;;;5.03;2.38;;;23.20;73.10;;;;;;5052201;28;20025;-68
2022/06/06 10:37:47;;;;;;;7.18;2.45;;;23.30;73.00;;;;;;5045513;28;20032;-69
2022/06/06 10:40:39;;;;;;;5.15;1.95;;;22.90;73.60;;;;;;5045751;28;20140;-69
2022/06/06 10:43:19;;;;;;;4.88;1.70;;;23.00;70.40;;;;;;5045550;28;20055;-68
2022/06/06 10:45:53;;;;;;;4.68;2.00;;;23.10;71.20;;;;;;5052075;28;20043;-69
2022/06/06 10:48:32;;;;;;;4.97;2.00;;;23.40;71.30;;;;;;5029645;28;20499;-70
2022/06/06 10:54:14;;;;;;;3.60;1.50;;;25.50;67.00;;;;;;5029370;28;20389;-70
2022/06/06 10:56:52;;;;;;;4.20;2.13;;;24.90;67.30;;;;;;5050702;28;20155;-70
2022/06/06 10:59:52;;;;;;;6.15;1.90;;;24.90;67.80;;;;;;5035645;28;20029;-70
2022/06/06 11:03:12;;;;;;;6.22;1.75;;;24.50;69.10;;;;;;5034393;28;20056;-70
2022/06/06 11:06:04;;;;;;;2.83;1.70;;;24.10;68.90;;;;;;5033938;28;20037;-70
2022/06/06 11:08:44;;;;;;;5.35;2.22;;;24.20;70.60;;;;;;5033322;28;20024;-70
2022/06/06 11:11:10;;;;;;;4.88;1.95;;;24.50;71.70;;;;;;5027034;28;20056;-71
2022/06/06 11:14:15;;;;;;;4.47;2.00;;;24.90;70.10;;;;;;5030576;28;20504;-70
2022/06/06 11:17:01;;;;;;;3.20;1.60;;;24.70;70.10;;;;;;5031935;28;20100;-70
2022/06/06 11:19:36;;;;;;;4.53;1.95;;;24.50;70.70;;;;;;5034003;28;20336;-70
2022/06/06 11:22:07;;;;;;;4.35;1.67;;;24.50;70.60;;;;;;5050172;28;20583;-70
2022/06/06 11:24:41;;;;;;;5.25;2.13;;;24.50;68.50;;;;;;5051754;28;20429;-70
2022/06/06 11:27:07;;;;;;;;;;;24.90;68.90;;;;;;5054698;28;20112;-70
2022/06/06 11:30:20;;;;;;;5.03;1.65;;;25.00;68.20;;;;;;5050278;28;20007;-70
2022/06/06 11:33:15;;;;;;;3.10;1.60;;;24.90;68.40;;;;;;5045450;28;20362;-70
2022/06/06 11:35:49;;;;;;;3.83;1.70;;;24.50;69.70;;;;;;5050168;28;20247;-70
2022/06/06 11:38:27;;;;;;;3.70;1.60;;;24.80;67.00;;;;;;5054410;28;20079;-70
2022/06/06 11:41:21;;;;;;;3.05;1.50;;;25.10;64.70;;;;;;5048697;28;20049;-70
2022/06/06 11:44:02;;;;;;;5.97;1.50;;;24.90;65.90;;;;;;5039316;28;20028;-70
2022/06/06 11:46:55;;;;;;;4.03;1.45;;;25.50;66.20;;;;;;5048470;28;20457;-69
2022/06/06 11:49:27;;;;;;;3.67;1.57;;;25.30;65.80;;;;;;5049411;28;20033;-70
2022/06/06 11:52:21;;;;;;;4.47;1.70;;;24.80;68.00;;;;;;5052051;28;20292;-70
2022/06/06 11:55:05;;;;;;;5.80;1.95;;;24.50;66.30;;;;;;5054911;28;20036;-68
2022/06/06 11:57:50;;;;;;;4.55;1.77;;;24.30;67.70;;;;;;5058020;28;20036;-70
2022/06/06 12:00:18;;;;;;;4.03;1.70;;;24.20;69.00;;;;;;5052252;28;20057;-70
2022/06/06 12:03:09;;;;;;;4.13;1.67;;;24.60;67.00;;;;;;5053920;28;20039;-70
2022/06/06 12:05:56;;;;;;;6.60;1.63;;;25.20;67.20;;;;;;5046012;28;20132;-70
2022/06/06 12:08:27;;;;;;;2.70;1.38;;;25.90;63.30;;;;;;5039147;28;20029;-70
2022/06/06 12:11:29;;;;;;;3.72;1.58;;;25.10;64.60;;;;;;5054918;28;20421;-70
2022/06/06 12:14:05;;;;;;;5.68;1.80;;;24.20;67.30;;;;;;5045607;28;20333;-70
2022/06/06 12:17:07;;;;;;;2.97;1.52;;;23.90;66.90;;;;;;5060629;28;20040;-70
2022/06/06 12:20:02;;;;;;;2.75;1.25;;;24.00;67.20;;;;;;5058825;28;20414;-70
2022/06/06 12:22:30;;;;;;;4.85;1.60;;;24.60;66.70;;;;;;5061341;28;20037;-70
2022/06/06 12:24:56;;;;;;;3.65;1.67;;;25.70;64.90;;;;;;5058918;28;20028;-70
2022/06/06 12:27:46;;;;;;;3.58;1.50;;;25.80;63.20;;;;;;5060806;28;20108;-70
2022/06/06 12:30:24;;;;;;;4.68;1.40;;;24.90;64.40;;;;;;5057335;28;20036;-70
2022/06/06 12:33:14;;;;;;;3.72;1.80;;;24.70;66.50;;;;;;5058305;28;20090;-70
2022/06/06 12:36:02;;;;;;;4.65;1.70;;;24.30;66.20;;;;;;5057789;28;20043;-70
2022/06/06 12:38:31;;;;;;;4.00;1.55;;;23.70;67.70;;;;;;5038599;28;20021;-70
2022/06/06 12:41:19;;;;;;;4.20;1.60;;;23.40;68.40;;;;;;5039814;28;20041;-69
2022/06/06 12:43:58;;;;;;;3.38;1.55;;;23.90;69.00;;;;;;5037429;28;20384;-69
2022/06/06 12:47:09;;;;;;;5.18;1.70;;;24.90;66.60;;;;;;5041345;28;20034;-69
2022/06/06 12:50:03;;;;;;;5.40;1.60;;;25.80;63.80;;;;;;5038493;28;20428;-69
2022/06/06 12:52:32;;;;;;;;;;;25.60;64.00;;;;;;5049496;28;20054;-70
2022/06/06 12:55:33;;;;;;;3.58;1.40;;;25.60;63.70;;;;;;5058273;28;19996;-71
2022/06/06 12:58:22;;;;;;;4.15;1.50;;;26.30;61.70;;;;;;5059147;28;20409;-70
2022/06/06 13:03:49;;;;;;;2.85;1.38;;;25.70;62.60;;;;;;5057372;28;20121;-70
2022/06/06 13:06:30;;;;;;;3.72;1.40;;;26.40;63.20;;;;;;5059606;28;20028;-71
2022/06/06 13:09:04;;;;;;;2.67;1.10;;;27.20;60.40;;;;;;5058082;28;20127;-70
2022/06/06 13:11:50;;;;;;;3.25;1.15;;;28.30;58.80;;;;;;5059944;28;20738;-70
2022/06/06 13:14:44;;;;;;;3.45;1.30;;;28.30;57.60;;;;;;5056777;28;20460;-70
2022/06/06 13:17:40;;;;;;;3.78;1.38;;;27.10;59.80;;;;;;5059937;28;20064;-70
2022/06/06 13:20:33;;;;;;;5.45;1.38;;;26.00;61.20;;;;;;5057895;28;20441;-71
2022/06/06 13:23:29;;;;;;;4.30;1.30;;;26.10;63.80;;;;;;5059562;28;20056;-71
2022/06/06 13:26:25;;;;;;;3.05;1.30;;;26.20;63.60;;;;;;5057830;28;20321;-71
2022/06/06 13:28:53;;;;;;;3.72;1.60;;;25.50;62.60;;;;;;5058571;28;20017;-70
2022/06/06 13:31:40;;;;;;;2.95;1.35;;;24.90;65.80;;;;;;5059919;28;20111;-71
2022/06/06 13:34:43;;;;;;;6.68;1.77;;;24.80;65.10;;;;;;5057517;28;20032;-70
2022/06/06 13:37:32;;;;;;;5.50;1.60;;;24.50;65.90;;;;;;5059321;28;20017;-70
2022/06/06 13:40:07;;;;;;;5.18;1.80;;;24.30;66.30;;;;;;5057257;28;20037;-71
2022/06/06 13:43:21;;;;;;;4.85;1.70;;;24.30;66.80;;;;;;5058879;28;20318;-70
2022/06/06 13:45:48;;;;;;;3.35;1.50;;;24.10;66.00;;;;;;5056112;28;20116;-70
2022/06/06 13:48:19;;;;;;;3.38;1.52;;;24.20;66.20;;;;;;5060240;28;20455;-70
2022/06/06 13:51:21;;;;;;;3.65;1.38;;;24.30;65.30;;;;;;5057232;28;20035;-70
2022/06/06 13:54:36;;;;;;;5.20;1.92;;;25.10;64.90;;;;;;5040113;28;20426;-70
2022/06/06 13:57:19;;;;;;;5.72;1.92;;;25.30;63.80;;;;;;5040914;28;20036;-70
2022/06/06 14:00:00;;;;;;;2.65;1.38;;;24.90;63.90;;;;;;5037233;28;20115;-69
2022/06/06 14:03:07;;;;;;;4.72;1.65;;;24.70;64.80;;;;;;5057891;28;20037;-70
2022/06/06 14:05:54;;;;;;;4.45;1.60;;;24.50;64.90;;;;;;5045427;28;20033;-70
2022/06/06 14:08:21;;;;;;;3.42;1.63;;;24.70;64.90;;;;;;5054035;28;20108;-70
2022/06/06 14:10:53;;;;;;;3.42;1.40;;;25.00;63.90;;;;;;5054638;28;20414;-70
2022/06/06 14:13:47;;;;;;;3.97;1.63;;;25.10;63.50;;;;;;5052601;28;20029;-70
2022/06/06 14:16:27;;;;;;;3.40;1.38;;;25.60;63.50;;;;;;5055526;28;20104;-70
2022/06/06 14:19:07;;;;;;;4.10;1.30;;;25.30;63.70;;;;;;5067448;28;20036;-70
2022/06/06 14:21:41;;;;;;;4.78;1.80;;;25.10;64.80;;;;;;5038746;28;20094;-69
2022/06/06 14:24:12;;;;;;;2.75;1.40;;;25.20;64.50;;;;;;5046298;28;20021;-70
2022/06/06 14:26:39;;;;;;;4.00;1.60;;;25.20;63.30;;;;;;5045100;28;20086;-70
2022/06/06 14:29:23;;;;;;;5.53;1.80;;;25.20;63.90;;;;;;5055904;28;20140;-70
2022/06/06 14:31:54;;;;;;;3.10;1.60;;;25.00;64.80;;;;;;5057980;28;20025;-70